Time;durP1;ratioP1;P1;durP2;ratioP2;P2;SDS_P1;SDS_P2;PMS_P1;PMS_P2;Temp;Humidity;BMP_temperature;BMP_pressure;BME280_temperature;BME280_humidity;BME280_pressure;Samples;Min_cycle;Max_cycle;Signal;HPM_P1;HPM_P2
2022/07/10 00:01:20;;;;;;;4.30;1.50;;;;;;;22.65;55.30;98758.59;5005173;28;20112;-60
2022/07/10 00:03:45;;;;;;;5.20;1.50;;;;;;;22.54;55.65;98741.59;5020462;28;20025;-59
2022/07/10 00:06:10;;;;;;;5.05;1.58;;;;;;;22.63;55.81;98760.66;5000589;28;20029;-61
2022/07/10 00:08:36;;;;;;;4.28;1.55;;;;;;;22.57;55.50;98754.41;4997145;28;21935;-59
2022/07/10 00:11:02;;;;;;;5.25;1.50;;;;;;;22.57;55.59;98756.25;5020217;28;20044;-60
2022/07/10 00:13:27;;;;;;;3.97;1.60;;;;;;;22.32;55.74;98711.25;5002915;28;20360;-60
2022/07/10 00:15:52;;;;;;;3.75;1.50;;;;;;;22.56;56.05;98744.00;5019174;28;20037;-61
2022/07/10 00:18:18;;;;;;;3.55;1.48;;;;;;;22.56;55.93;98744.84;5001155;28;20057;-61
2022/07/10 00:20:43;;;;;;;3.85;1.60;;;;;;;22.49;56.08;98752.06;4999318;28;20037;-60
2022/07/10 00:23:09;;;;;;;3.85;1.30;;;;;;;22.20;56.47;98705.84;4997699;28;20075;-60
2022/07/10 00:25:34;;;;;;;4.97;1.70;;;;;;;22.49;56.33;98757.34;5001527;28;20637;-60
2022/07/10 00:28:00;;;;;;;5.60;1.50;;;;;;;22.36;56.25;98736.25;4987668;28;20025;-60
2022/07/10 00:30:25;;;;;;;4.70;1.60;;;;;;;22.41;55.64;98744.38;4985281;28;20030;-60
2022/07/10 00:32:50;;;;;;;4.97;1.40;;;;;;;22.41;54.79;98739.88;5003391;28;20105;-61
2022/07/10 00:35:16;;;;;;;4.22;1.65;;;;;;;22.34;55.09;98746.25;4997751;28;20033;-60
2022/07/10 00:37:41;;;;;;;4.63;1.50;;;;;;;22.30;55.03;98735.28;5001686;28;20511;-60
2022/07/10 00:40:07;;;;;;;4.85;1.70;;;;;;;22.30;54.05;98740.59;5001863;28;20030;-59
2022/07/10 00:42:33;;;;;;;3.42;1.50;;;;;;;22.43;53.82;98737.84;4982572;28;20029;-61
2022/07/10 00:44:58;;;;;;;3.67;1.40;;;;;;;22.36;54.04;98734.44;4999978;28;20026;-61
2022/07/10 00:47:24;;;;;;;3.80;1.50;;;;;;;22.38;53.73;98732.38;4998122;28;20098;-61
2022/07/10 00:49:50;;;;;;;6.70;1.50;;;;;;;22.25;52.98;98721.84;4983799;28;20034;-60
2022/07/10 00:52:16;;;;;;;3.88;1.50;;;;;;;22.32;53.25;98722.63;4982835;28;20492;-60
2022/07/10 00:54:44;;;;;;;3.92;1.55;;;;;;;22.37;53.56;98730.75;4996812;28;20032;-60
2022/07/10 00:57:10;;;;;;;3.72;1.40;;;;;;;22.33;54.00;98726.91;4985366;28;20583;-60
2022/07/10 00:59:35;;;;;;;3.40;1.38;;;;;;;22.17;54.06;98722.16;4983897;28;20467;-61
2022/07/10 01:02:05;;;;;;;3.58;1.35;;;;;;;21.99;52.87;98713.13;5007966;28;20079;-60
2022/07/10 01:04:31;;;;;;;4.22;1.40;;;;;;;22.13;53.36;98724.41;5015214;28;20046;-60
2022/07/10 01:06:56;;;;;;;5.10;1.40;;;;;;;22.16;53.02;98716.06;5003744;28;20048;-61
2022/07/10 01:09:22;;;;;;;4.03;1.40;;;;;;;22.16;51.75;98717.88;4999888;28;20547;-60
2022/07/10 01:11:48;;;;;;;3.60;1.25;;;;;;;22.11;52.15;98715.88;5001729;28;20033;-60
2022/07/10 01:14:15;;;;;;;8.23;2.00;;;;;;;22.11;53.62;98718.53;5002005;28;20040;-60
2022/07/10 01:16:40;;;;;;;7.55;2.10;;;;;;;22.05;54.74;98722.88;5000995;28;20555;-59
2022/07/10 01:19:06;;;;;;;6.90;1.67;;;;;;;21.94;53.63;98712.16;4998451;28;20025;-60
2022/07/10 01:21:36;;;;;;;6.07;1.50;;;;;;;21.97;53.95;98707.22;5002655;28;20017;-60
2022/07/10 01:24:07;;;;;;;3.72;1.40;;;;;;;21.95;54.01;98704.00;5002236;28;20476;-59
2022/07/10 01:26:32;;;;;;;5.35;1.40;;;;;;;21.65;53.30;98675.53;4997439;28;20472;-60
2022/07/10 01:28:58;;;;;;;4.25;1.40;;;;;;;21.64;53.20;98668.59;4984624;28;20108;-60
2022/07/10 01:31:27;;;;;;;4.03;1.40;;;;;;;21.90;53.26;98709.13;4999961;28;20018;-60
2022/07/10 01:33:54;;;;;;;3.83;1.38;;;;;;;21.75;52.24;98676.88;5002318;28;20536;-59
2022/07/10 01:36:20;;;;;;;3.83;1.30;;;;;;;21.76;51.65;98678.47;5000216;28;20033;-60
2022/07/10 01:38:46;;;;;;;3.50;1.20;;;;;;;21.88;52.20;98696.09;5001868;28;20373;-60
2022/07/10 01:41:11;;;;;;;4.93;1.20;;;;;;;21.89;52.15;98700.38;5000690;28;20036;-60
2022/07/10 01:43:37;;;;;;;4.20;1.60;;;;;;;21.83;52.63;98697.78;4985029;28;20461;-59
2022/07/10 01:46:03;;;;;;;5.18;1.50;;;;;;;21.70;52.12;98682.81;4984852;28;20017;-59
2022/07/10 01:48:29;;;;;;;3.58;1.23;;;;;;;21.67;52.43;98691.19;4984371;28;20060;-60
2022/07/10 01:50:54;;;;;;;4.15;1.10;;;;;;;21.35;52.09;98650.69;5001133;28;20520;-59
2022/07/10 01:53:20;;;;;;;3.58;1.20;;;;;;;21.63;52.46;98689.97;5007254;28;20036;-59
2022/07/10 01:55:45;;;;;;;3.22;1.20;;;;;;;21.69;51.54;98691.78;4997683;28;20025;-60
2022/07/10 01:58:11;;;;;;;3.83;1.20;;;;;;;21.56;51.86;98687.41;5000043;28;20026;-59
2022/07/10 02:00:36;;;;;;;2.90;1.15;;;;;;;21.64;51.76;98688.97;5033666;28;20807;-59
2022/07/10 02:05:45;;;;;;;3.20;1.40;;;;;;;21.48;52.50;98685.00;5001369;28;20036;-59
2022/07/10 02:08:11;;;;;;;2.88;1.10;;;;;;;21.59;52.18;98694.88;5000244;28;20030;-60
2022/07/10 02:10:36;;;;;;;4.20;1.30;;;;;;;21.55;51.47;98696.34;4989453;28;20014;-58
2022/07/10 02:13:02;;;;;;;3.03;1.10;;;;;;;21.64;52.04;98702.19;5000271;28;20068;-59
2022/07/10 02:15:27;;;;;;;5.65;1.23;;;;;;;21.36;52.21;98654.97;5001139;28;20053;-61
2022/07/10 02:17:52;;;;;;;3.30;1.13;;;;;;;21.51;52.15;98684.56;4999299;28;20134;-58
2022/07/10 02:20:18;;;;;;;4.93;1.48;;;;;;;21.45;52.59;98682.81;5006527;28;20774;-58
2022/07/10 02:22:43;;;;;;;3.83;1.17;;;;;;;21.25;52.99;98657.25;5001735;28;20026;-60
2022/07/10 02:25:08;;;;;;;3.53;1.35;;;;;;;21.17;52.42;98664.59;5001415;28;20530;-61
2022/07/10 02:27:34;;;;;;;4.88;1.23;;;;;;;21.35;52.38;98691.16;4999192;28;20029;-60
2022/07/10 02:29:59;;;;;;;3.35;1.00;;;;;;;21.39;52.72;98691.53;5015283;28;20029;-62
2022/07/10 02:32:25;;;;;;;4.93;1.10;;;;;;;21.45;52.44;98688.88;5001853;28;20033;-63
2022/07/10 02:34:50;;;;;;;2.90;1.10;;;;;;;21.40;51.78;98685.22;4997002;28;20074;-58
2022/07/10 02:37:15;;;;;;;3.97;1.20;;;;;;;21.23;52.94;98683.09;4993024;28;20140;-58
2022/07/10 02:39:41;;;;;;;4.40;1.15;;;;;;;21.19;53.45;98684.53;5018405;28;20365;-60
2022/07/10 02:42:06;;;;;;;2.80;1.10;;;;;;;21.17;54.27;98686.56;5000324;28;20034;-59
2022/07/10 02:44:32;;;;;;;3.50;1.20;;;;;;;21.14;53.99;98692.28;5000019;28;20025;-60
2022/07/10 02:46:57;;;;;;;4.22;1.05;;;;;;;21.04;53.70;98686.63;5016574;28;20557;-59
2022/07/10 02:49:23;;;;;;;5.47;1.20;;;;;;;21.13;53.56;98680.88;4992337;28;20034;-60
2022/07/10 02:51:48;;;;;;;3.53;1.20;;;;;;;21.06;53.61;98669.53;4998965;28;20021;-59
2022/07/10 02:54:13;;;;;;;4.07;1.20;;;;;;;21.15;53.65;98680.69;4992825;28;20357;-59
2022/07/10 02:56:39;;;;;;;4.20;1.10;;;;;;;20.83;53.80;98650.75;4999616;28;20132;-61
2022/07/10 02:59:06;;;;;;;2.72;1.00;;;;;;;21.10;53.94;98689.25;5015205;28;20473;-59
2022/07/10 03:01:31;;;;;;;4.97;1.30;;;;;;;21.15;53.72;98685.97;4999590;28;20422;-59
2022/07/10 03:03:57;;;;;;;3.03;1.02;;;;;;;21.09;53.80;98671.75;4996965;28;20102;-60
2022/07/10 03:06:23;;;;;;;3.53;1.13;;;;;;;21.13;53.25;98680.09;5000164;28;20497;-60
2022/07/10 03:08:49;;;;;;;4.18;1.30;;;;;;;21.01;53.68;98679.13;4992539;28;20417;-60
2022/07/10 03:11:14;;;;;;;2.97;1.10;;;;;;;20.81;53.51;98643.03;4999186;28;20030;-60
2022/07/10 03:13:40;;;;;;;3.33;1.10;;;;;;;21.00;53.43;98678.31;4999042;28;20473;-60
2022/07/10 03:16:05;;;;;;;3.63;1.10;;;;;;;20.89;54.20;98682.44;4978421;28;20031;-60
2022/07/10 03:18:30;;;;;;;3.80;1.17;;;;;;;20.82;54.28;98681.63;4996955;28;20129;-59
2022/07/10 03:20:56;;;;;;;3.10;1.30;;;;;;;20.54;54.57;98644.94;4997031;28;20030;-58
2022/07/10 03:23:21;;;;;;;3.35;1.00;;;;;;;20.69;54.87;98650.00;4997773;28;20132;-59
2022/07/10 03:25:47;;;;;;;4.43;1.30;;;;;;;20.47;55.06;98602.69;5017981;28;20037;-59
2022/07/10 03:28:12;;;;;;;5.63;1.50;;;;;;;20.80;55.13;98677.59;4982998;28;20045;-59
2022/07/10 03:30:38;;;;;;;3.40;1.20;;;;;;;20.45;55.60;98643.56;4999510;28;20025;-59
2022/07/10 03:33:03;;;;;;;3.70;1.35;;;;;;;20.65;55.92;98677.84;5004671;28;20029;-60
2022/07/10 03:35:31;;;;;;;3.10;1.25;;;;;;;20.59;56.19;98671.53;4983853;28;20018;-60
2022/07/10 03:37:56;;;;;;;5.22;1.20;;;;;;;20.63;55.92;98680.69;5001538;28;20101;-58
2022/07/10 03:40:22;;;;;;;3.17;1.17;;;;;;;20.65;55.76;98673.38;4976872;28;20113;-58
2022/07/10 03:42:47;;;;;;;3.90;1.27;;;;;;;20.67;56.18;98678.47;5003360;28;20576;-58
2022/07/10 03:45:13;;;;;;;3.45;1.20;;;;;;;20.17;56.29;98615.59;4981543;28;20033;-59
2022/07/10 03:47:38;;;;;;;3.70;1.27;;;;;;;20.66;55.84;98687.38;4999361;28;20018;-59
2022/07/10 03:50:04;;;;;;;4.00;1.38;;;;;;;20.51;55.98;98680.47;5003442;28;20125;-59
2022/07/10 03:52:30;;;;;;;2.95;1.02;;;;;;;20.24;55.56;98645.41;5000271;28;20142;-60
2022/07/10 03:54:55;;;;;;;3.55;1.13;;;;;;;20.51;56.03;98677.03;5010873;28;20700;-60
2022/07/10 04:00:05;;;;;;;5.68;1.40;;;;;;;20.54;55.39;98668.72;4999114;28;20037;-60
2022/07/10 04:02:30;;;;;;;3.42;1.25;;;;;;;20.53;55.48;98661.78;5003989;28;20322;-58
2022/07/10 04:04:56;;;;;;;3.63;1.33;;;;;;;20.56;55.59;98664.03;5004972;28;20622;-58
2022/07/10 04:07:21;;;;;;;3.70;1.20;;;;;;;20.62;54.99;98663.22;5001322;28;20026;-62
2022/07/10 04:09:47;;;;;;;3.72;1.20;;;;;;;20.64;55.26;98668.28;5003678;28;20037;-61
2022/07/10 04:12:12;;;;;;;3.35;1.20;;;;;;;20.51;55.67;98656.72;5002515;28;20091;-60
2022/07/10 04:14:37;;;;;;;3.45;1.30;;;;;;;20.47;56.06;98663.44;4993472;28;20180;-61
2022/07/10 04:17:03;;;;;;;3.20;1.17;;;;;;;20.41;56.01;98664.28;5002306;28;20018;-62
2022/07/10 04:19:28;;;;;;;3.78;1.25;;;;;;;20.33;56.75;98657.41;5002992;28;20038;-63
2022/07/10 04:21:54;;;;;;;3.20;1.20;;;;;;;20.46;56.51;98659.19;5003445;28;20025;-63
2022/07/10 04:24:19;;;;;;;3.72;1.30;;;;;;;20.22;56.61;98631.59;5034226;28;20037;-61
2022/07/10 04:26:45;;;;;;;3.80;1.30;;;;;;;20.43;57.01;98662.25;4999145;28;20387;-63
2022/07/10 04:29:10;;;;;;;3.63;1.30;;;;;;;20.36;57.01;98662.25;4994859;28;20026;-62
2022/07/10 04:31:35;;;;;;;4.50;1.40;;;;;;;20.19;57.47;98632.03;5007161;28;20497;-60
2022/07/10 04:34:01;;;;;;;3.40;1.30;;;;;;;20.20;58.21;98638.91;4999439;28;20022;-61
2022/07/10 04:36:26;;;;;;;4.47;1.23;;;;;;;20.34;57.74;98661.63;4980369;28;20053;-62
2022/07/10 04:38:51;;;;;;;5.57;1.83;;;;;;;20.30;59.03;98667.56;5002770;28;20034;-60
2022/07/10 04:41:17;;;;;;;3.50;1.27;;;;;;;20.33;58.50;98657.41;4985980;28;20552;-63
2022/07/10 04:43:42;;;;;;;7.97;1.60;;;;;;;20.28;59.23;98661.66;5018878;28;20073;-60
2022/07/10 04:46:08;;;;;;;5.28;1.50;;;;;;;20.27;59.47;98663.47;5001103;28;20037;-62
2022/07/10 04:48:33;;;;;;;5.28;1.70;;;;;;;20.23;60.19;98657.00;4998494;28;20643;-60
2022/07/10 04:50:58;;;;;;;4.32;1.63;;;;;;;20.32;61.82;98652.31;5001851;28;20138;-61
2022/07/10 04:53:24;;;;;;;5.00;1.40;;;;;;;20.41;62.06;98652.88;4985044;28;20552;-62
2022/07/10 04:55:49;;;;;;;4.25;1.40;;;;;;;20.32;63.00;98641.75;5002063;28;20026;-63
2022/07/10 04:58:15;;;;;;;3.35;1.20;;;;;;;20.03;63.79;98606.88;4994314;28;20026;-59
2022/07/10 05:00:40;;;;;;;3.30;1.30;;;;;;;20.29;64.13;98656.16;4985362;28;20030;-60
2022/07/10 05:03:05;;;;;;;3.83;1.27;;;;;;;20.20;65.24;98652.13;4977704;28;20153;-60
2022/07/10 05:05:31;;;;;;;4.13;1.30;;;;;;;20.15;65.53;98665.13;4990685;28;20037;-61
2022/07/10 05:07:56;;;;;;;3.70;1.50;;;;;;;20.23;65.89;98656.19;5002253;28;20421;-61
2022/07/10 05:10:22;;;;;;;4.80;1.80;;;;;;;20.14;66.37;98653.75;5001014;28;20566;-60
2022/07/10 05:12:48;;;;;;;3.38;1.35;;;;;;;20.09;66.48;98639.56;5001768;28;20116;-61
2022/07/10 05:15:13;;;;;;;4.18;1.27;;;;;;;20.09;66.84;98648.28;5000187;28;20029;-62
2022/07/10 05:17:38;;;;;;;4.43;1.50;;;;;;;19.97;67.26;98640.19;5001414;28;20429;-62
2022/07/10 05:20:05;;;;;;;3.78;1.40;;;;;;;19.81;66.81;98613.41;5001989;28;20034;-62
2022/07/10 05:22:30;;;;;;;4.10;1.60;;;;;;;19.93;66.83;98649.53;5033845;28;20026;-60
2022/07/10 05:24:56;;;;;;;5.45;2.20;;;;;;;19.98;66.66;98644.44;4985126;28;20080;-59
2022/07/10 05:27:21;;;;;;;5.38;1.95;;;;;;;19.95;67.17;98649.31;4982211;28;20081;-61
2022/07/10 05:29:47;;;;;;;5.28;1.95;;;;;;;19.92;67.39;98649.72;4996004;28;20096;-63
2022/07/10 05:32:13;;;;;;;4.90;1.50;;;;;;;19.88;67.78;98643.25;5000882;28;20025;-61
2022/07/10 05:34:38;;;;;;;4.68;2.20;;;;;;;19.89;68.01;98655.41;5001842;28;20036;-60
2022/07/10 05:37:04;;;;;;;4.78;1.70;;;;;;;20.02;67.58;98644.84;4997633;28;20018;-61
2022/07/10 05:39:30;;;;;;;4.95;1.65;;;;;;;19.75;68.07;98615.03;5000424;28;20018;-61
2022/07/10 05:41:57;;;;;;;3.95;1.55;;;;;;;19.93;68.80;98648.69;5003325;28;20495;-64
2022/07/10 05:44:22;;;;;;;4.35;1.95;;;;;;;19.93;68.36;98651.34;4999893;28;20132;-59
2022/07/10 05:46:48;;;;;;;4.63;2.00;;;;;;;19.88;68.15;98656.44;5001586;28;20865;-59
2022/07/10 05:49:13;;;;;;;4.03;1.88;;;;;;;19.94;67.59;98658.25;5000559;28;20033;-60
2022/07/10 05:51:39;;;;;;;5.45;1.75;;;;;;;19.97;67.55;98655.22;4984276;28;20022;-60
2022/07/10 05:54:04;;;;;;;4.75;1.50;;;;;;;19.87;67.51;98639.78;4999824;28;20707;-63
2022/07/10 05:56:29;;;;;;;5.40;1.60;;;;;;;19.94;67.04;98632.66;5016261;28;20022;-60
2022/07/10 05:58:55;;;;;;;3.80;1.35;;;;;;;20.00;66.78;98638.16;5000172;28;20656;-60
2022/07/10 06:01:23;;;;;;;3.35;1.40;;;;;;;20.08;66.14;98638.75;4999999;28;20017;-59
2022/07/10 06:03:49;;;;;;;4.03;1.40;;;;;;;20.10;65.99;98642.00;5016336;28;20095;-61
2022/07/10 06:06:15;;;;;;;3.30;1.20;;;;;;;20.16;64.98;98629.81;5001243;28;20029;-62
2022/07/10 06:08:41;;;;;;;4.55;1.50;;;;;;;19.91;64.73;98598.78;5000349;28;20025;-59
2022/07/10 06:11:06;;;;;;;4.13;1.70;;;;;;;19.68;65.11;98567.53;5000849;28;20473;-59
2022/07/10 06:13:32;;;;;;;3.80;1.30;;;;;;;19.80;65.20;98594.13;4999206;28;20037;-60
2022/07/10 06:15:57;;;;;;;4.30;1.50;;;;;;;20.07;64.19;98616.00;4999732;28;20109;-62
2022/07/10 06:18:23;;;;;;;4.40;1.60;;;;;;;20.14;64.20;98622.09;4999045;28;20453;-60
2022/07/10 06:20:48;;;;;;;4.00;1.67;;;;;;;20.12;64.09;98618.84;4995151;28;20098;-59
2022/07/10 06:23:13;;;;;;;3.67;1.40;;;;;;;20.11;63.95;98616.41;5000556;28;20022;-60
2022/07/10 06:25:39;;;;;;;4.43;1.42;;;;;;;19.92;63.55;98583.78;5017104;28;20029;-60
2022/07/10 06:28:04;;;;;;;4.63;1.60;;;;;;;20.10;64.13;98620.06;4983590;28;20032;-61
2022/07/10 06:30:30;;;;;;;4.03;1.30;;;;;;;20.15;63.96;98620.25;4997776;28;20014;-63
2022/07/10 06:32:55;;;;;;;4.50;1.58;;;;;;;20.22;63.14;98614.97;4994276;28;20489;-60
2022/07/10 06:35:21;;;;;;;4.13;1.50;;;;;;;20.21;63.08;98616.00;4980824;28;20042;-60
2022/07/10 06:37:46;;;;;;;4.38;1.30;;;;;;;20.13;62.83;98594.09;5017064;28;20018;-62
2022/07/10 06:40:14;;;;;;;5.63;1.35;;;;;;;20.27;62.82;98613.31;4983957;28;20476;-60
2022/07/10 06:42:40;;;;;;;5.10;1.90;;;;;;;20.12;63.17;98587.16;4994593;28;20681;-61
2022/07/10 06:45:06;;;;;;;3.90;1.40;;;;;;;20.44;62.20;98610.22;4984647;28;20036;-60
2022/07/10 06:50:16;;;;;;;5.35;2.78;;;;;;;20.53;61.89;98596.59;5000913;28;20061;-59
2022/07/10 06:52:41;;;;;;;146.75;106.28;;;;;;;20.50;60.83;98591.72;4980601;28;20488;-59
2022/07/10 06:55:07;;;;;;;46.83;34.15;;;;;;;20.64;61.56;98599.63;4999265;28;20770;-61
2022/07/10 06:57:32;;;;;;;31.33;24.75;;;;;;;20.41;60.83;98548.09;5017060;28;20022;-59
2022/07/10 06:59:58;;;;;;;27.48;20.63;;;;;;;20.74;59.20;98589.41;4980345;28;20026;-60
2022/07/10 07:02:23;;;;;;;46.42;31.83;;;;;;;20.67;59.39;98594.72;5013946;28;20579;-60
2022/07/10 07:04:49;;;;;;;40.90;26.05;;;;;;;20.59;57.78;98586.19;4996937;28;20030;-61
2022/07/10 07:07:15;;;;;;;17.65;10.93;;;;;;;20.69;57.01;98589.22;4981887;28;20150;-59
2022/07/10 07:09:42;;;;;;;3.78;1.50;;;;;;;20.68;55.83;98580.50;5006106;28;20116;-59
2022/07/10 07:12:07;;;;;;;5.13;2.20;;;;;;;20.65;55.60;98578.28;5005174;28;20137;-61
2022/07/10 07:14:33;;;;;;;4.35;1.60;;;;;;;20.71;54.99;98571.34;5005287;28;20020;-61
2022/07/10 07:17:09;;;;;;;4.05;1.67;;;;;;;20.77;54.27;98574.97;5020316;28;20033;-61
2022/07/10 07:25:05;;;;;;;3.60;1.35;;;;;;;20.80;52.73;98566.63;4999614;28;20133;-61
2022/07/10 07:27:31;;;;;;;11.40;2.92;;;;;;;20.81;54.33;98555.00;4984426;28;20481;-63
2022/07/10 07:29:57;;;;;;;3.92;1.35;;;;;;;20.87;52.25;98551.53;4994235;28;20103;-61
2022/07/10 07:32:22;;;;;;;3.47;1.30;;;;;;;20.71;51.59;98519.31;4994106;28;20026;-61
2022/07/10 07:34:48;;;;;;;4.57;1.25;;;;;;;20.97;51.37;98553.72;5003525;28;20018;-59
2022/07/10 07:37:13;;;;;;;5.70;1.40;;;;;;;21.01;51.27;98555.72;5005433;28;20092;-60
2022/07/10 07:39:38;;;;;;;4.10;1.42;;;;;;;20.96;51.24;98552.09;5002919;28;20024;-62
2022/07/10 07:42:04;;;;;;;14.30;6.18;;;;;;;21.00;50.99;98548.81;5007571;28;20422;-61
2022/07/10 07:44:29;;;;;;;13.50;6.07;;;;;;;20.98;51.35;98550.84;5002987;28;20014;-60
2022/07/10 07:46:55;;;;;;;23.60;12.25;;;;;;;21.37;50.02;98546.28;4988240;28;20137;-65
2022/07/10 07:49:21;;;;;;;14.80;8.13;;;;;;;22.34;46.75;98540.50;5002260;28;20036;-59
2022/07/10 07:51:47;;;;;;;8.60;5.00;;;;;;;22.65;45.01;98502.38;5002263;28;20022;-60
2022/07/10 07:54:12;;;;;;;4.90;2.60;;;;;;;23.20;43.96;98532.38;5019628;28;20029;-61
2022/07/10 07:56:38;;;;;;;3.28;1.20;;;;;;;23.56;42.70;98527.91;4993503;28;20022;-61
2022/07/10 07:59:03;;;;;;;3.80;1.40;;;;;;;23.86;42.83;98489.81;5002441;28;20109;-60
2022/07/10 08:01:29;;;;;;;2.83;0.95;;;;;;;24.44;41.48;98530.53;5002844;28;20037;-61
2022/07/10 08:03:55;;;;;;;3.05;1.00;;;;;;;24.71;41.56;98526.28;4995992;28;20496;-62
2022/07/10 08:06:20;;;;;;;3.75;0.98;;;;;;;24.82;38.28;98487.41;4987550;28;20030;-60
2022/07/10 08:08:46;;;;;;;3.05;0.98;;;;;;;25.46;36.76;98519.03;5001569;28;20079;-60
2022/07/10 08:11:11;;;;;;;2.83;0.85;;;;;;;25.64;36.80;98528.59;4986736;28;20478;-60
2022/07/10 08:13:37;;;;;;;2.63;1.00;;;;;;;25.60;39.51;98522.16;5003436;28;20038;-59
2022/07/10 08:16:02;;;;;;;3.60;0.95;;;;;;;25.70;38.63;98522.31;4999567;28;20037;-60
2022/07/10 08:18:29;;;;;;;3.13;1.00;;;;;;;25.39;38.35;98486.47;5002528;28;20022;-62
2022/07/10 08:20:55;;;;;;;3.83;1.20;;;;;;;25.67;39.67;98506.00;5002121;28;20030;-60
2022/07/10 08:23:20;;;;;;;2.88;0.90;;;;;;;25.61;37.56;98518.44;5000946;28;20022;-60
2022/07/10 08:25:45;;;;;;;4.25;1.55;;;;;;;25.70;37.83;98481.53;5001099;28;20134;-60
2022/07/10 08:28:11;;;;;;;4.13;1.50;;;;;;;26.20;35.78;98503.78;5004251;28;20022;-61
2022/07/10 08:30:38;;;;;;;2.83;0.90;;;;;;;26.22;37.16;98499.00;5000700;28;22067;-59
2022/07/10 08:33:03;;;;;;;3.10;0.90;;;;;;;26.10;34.81;98472.47;5002613;28;20535;-63
2022/07/10 08:35:30;;;;;;;2.05;0.80;;;;;;;26.19;33.79;98500.28;5003533;28;20133;-60
2022/07/10 08:37:55;;;;;;;4.35;1.10;;;;;;;26.33;35.99;98498.03;5014947;28;20022;-61
2022/07/10 08:40:22;;;;;;;7.22;2.15;;;;;;;26.59;33.77;98468.97;4994166;28;20030;-60
2022/07/10 08:42:47;;;;;;;3.70;1.17;;;;;;;26.93;33.39;98488.25;5018981;28;20109;-60
2022/07/10 08:45:14;;;;;;;4.70;2.15;;;;;;;27.12;32.58;98487.84;4997422;28;20439;-60
2022/07/10 08:47:44;;;;;;;3.15;1.13;;;;;;;27.27;32.72;98485.34;5002312;28;20036;-60
2022/07/10 08:50:16;;;;;;;2.38;0.93;;;;;;;27.37;32.07;98480.03;4985275;28;20042;-65
2022/07/10 08:53:08;;;;;;;3.22;1.00;;;;;;;27.77;31.70;98472.53;5017817;28;20025;-61
2022/07/10 08:55:35;;;;;;;2.28;0.80;;;;;;;28.10;32.14;98470.53;5017377;28;20033;-59
2022/07/10 08:58:00;;;;;;;3.22;0.90;;;;;;;28.16;31.16;98470.28;5003007;28;20068;-60
2022/07/10 09:00:26;;;;;;;2.22;0.70;;;;;;;27.98;30.95;98460.06;5002485;28;20049;-61
2022/07/10 09:02:54;;;;;;;2.08;0.80;;;;;;;28.21;31.55;98466.03;5000856;28;20037;-62
2022/07/10 09:05:19;;;;;;;2.20;0.70;;;;;;;28.43;29.65;98455.91;5001627;28;20036;-61
2022/07/10 09:07:45;;;;;;;3.08;0.90;;;;;;;28.48;29.92;98466.63;4997308;28;20025;-64
2022/07/10 09:10:11;;;;;;;3.08;0.90;;;;;;;28.40;30.21;98455.63;5004297;28;20121;-60
2022/07/10 09:12:50;;;;;;;2.13;0.80;;;;;;;28.73;30.08;98454.34;5015686;28;20017;-60
2022/07/10 09:15:17;;;;;;;;;;;;;;;28.60;30.27;98455.69;5006285;28;20061;-60
2022/07/10 09:18:02;;;;;;;2.92;0.90;;;;;;;28.83;30.62;98453.56;5000525;28;19960;-60
2022/07/10 09:20:35;;;;;;;2.40;0.80;;;;;;;28.99;29.54;98444.47;4982925;28;20029;-61
2022/07/10 09:23:17;;;;;;;2.42;0.80;;;;;;;29.14;29.92;98439.09;5001928;28;20026;-58
2022/07/10 09:25:43;;;;;;;2.95;1.00;;;;;;;29.05;29.50;98408.56;4994422;28;20022;-60
2022/07/10 09:28:09;;;;;;;3.97;0.90;;;;;;;29.48;29.40;98432.31;4995018;28;20025;-62
2022/07/10 09:30:39;;;;;;;4.18;0.90;;;;;;;29.33;30.11;98433.16;4999040;28;20029;-60
2022/07/10 09:33:29;;;;;;;2.70;0.88;;;;;;;29.63;30.27;98443.00;5001539;28;20026;-61
2022/07/10 09:36:07;;;;;;;2.33;0.80;;;;;;;29.77;29.83;98400.34;5000160;28;20120;-61
2022/07/10 09:38:42;;;;;;;4.37;1.10;;;;;;;30.06;30.85;98439.88;5015553;28;20053;-58
2022/07/10 09:41:16;;;;;;;3.03;1.10;;;;;;;29.53;30.89;98434.97;4995507;28;20739;-59
2022/07/10 09:43:50;;;;;;;3.47;0.90;;;;;;;29.52;30.94;98428.03;5002025;28;20034;-61
2022/07/10 09:46:16;;;;;;;3.42;0.90;;;;;;;29.76;31.10;98424.75;4993041;28;20025;-59
2022/07/10 09:48:42;;;;;;;2.95;1.00;;;;;;;29.82;32.75;98429.81;5001212;28;20222;-60
2022/07/10 09:51:09;;;;;;;3.60;1.23;;;;;;;29.45;31.85;98414.94;5001157;28;20030;-59
2022/07/10 09:53:42;;;;;;;2.50;0.80;;;;;;;29.39;30.94;98423.25;5001174;28;20421;-60
2022/07/10 09:56:11;;;;;;;3.78;1.10;;;;;;;29.53;31.67;98418.91;4987305;28;20072;-59
2022/07/10 09:58:37;;;;;;;2.05;0.80;;;;;;;29.32;31.26;98413.63;5002207;28;20026;-60
2022/07/10 10:01:04;;;;;;;9.43;1.20;;;;;;;29.17;32.39;98413.69;4992443;28;20031;-60
2022/07/10 10:03:33;;;;;;;3.08;1.10;;;;;;;28.60;32.58;98409.41;5005364;28;20033;-62
2022/07/10 10:06:03;;;;;;;3.42;1.05;;;;;;;28.61;34.99;98403.81;4997166;28;20085;-59
2022/07/10 10:08:31;;;;;;;3.33;1.10;;;;;;;28.17;33.66;98378.34;5000642;28;20064;-60
2022/07/10 10:10:57;;;;;;;2.50;0.90;;;;;;;28.30;34.14;98386.94;5001113;28;20042;-59
2022/07/10 10:13:27;;;;;;;2.33;0.90;;;;;;;28.10;35.38;98401.84;5000656;28;20042;-61
2022/07/10 10:15:53;;;;;;;3.05;1.00;;;;;;;27.75;35.12;98381.97;5001107;28;20026;-59
2022/07/10 10:18:22;;;;;;;3.03;1.00;;;;;;;27.62;39.83;98379.78;5000024;28;20054;-59
2022/07/10 10:20:48;;;;;;;3.38;1.10;;;;;;;27.55;39.72;98377.34;5001696;28;20032;-62
2022/07/10 10:23:20;;;;;;;3.38;1.00;;;;;;;27.14;40.31;98384.31;5000482;28;20037;-62
2022/07/10 10:25:47;;;;;;;2.72;1.00;;;;;;;27.18;40.34;98380.06;4994722;28;20033;-62
2022/07/10 10:28:13;;;;;;;3.10;1.00;;;;;;;27.03;39.23;98341.59;5000168;28;20022;-61
2022/07/10 10:30:44;;;;;;;2.78;1.05;;;;;;;27.19;38.13;98366.47;4983202;28;20634;-59
2022/07/10 10:33:37;;;;;;;2.95;1.20;;;;;;;27.05;39.30;98368.00;4985729;28;20022;-59
2022/07/10 10:36:04;;;;;;;2.45;1.00;;;;;;;27.14;39.77;98363.78;5000602;28;20408;-60
2022/07/10 10:38:44;;;;;;;2.95;1.10;;;;;;;27.13;40.15;98359.53;4998610;28;20037;-61
2022/07/10 10:41:22;;;;;;;2.67;0.93;;;;;;;27.01;37.11;98337.56;4995823;28;20120;-60
2022/07/10 10:44:08;;;;;;;2.40;1.00;;;;;;;27.31;34.89;98360.16;4995978;28;20771;-58
2022/07/10 10:46:34;;;;;;;3.13;0.95;;;;;;;27.33;32.53;98358.84;4999501;28;20030;-60
2022/07/10 10:49:07;;;;;;;3.08;0.98;;;;;;;27.55;33.02;98352.53;5000238;28;20049;-60
2022/07/10 10:51:58;;;;;;;3.28;1.00;;;;;;;27.74;32.73;98355.53;4998732;28;20022;-59
2022/07/10 10:54:23;;;;;;;6.05;1.00;;;;;;;27.91;31.17;98355.31;4999250;28;20042;-60
2022/07/10 10:57:10;;;;;;;2.33;0.85;;;;;;;28.10;30.37;98343.06;5000587;28;20133;-60
2022/07/10 10:59:48;;;;;;;2.60;0.80;;;;;;;28.13;30.19;98341.72;5000746;28;20596;-59
2022/07/10 11:02:40;;;;;;;2.65;0.95;;;;;;;28.24;29.04;98343.34;4999596;28;20057;-58
2022/07/10 11:05:18;;;;;;;2.33;0.85;;;;;;;28.27;31.19;98342.00;5015432;28;20488;-60
2022/07/10 11:07:58;;;;;;;2.20;0.80;;;;;;;28.16;34.86;98335.84;5016128;28;20029;-60
2022/07/10 11:10:35;;;;;;;3.13;0.98;;;;;;;27.65;34.32;98309.81;5000313;28;20049;-60
2022/07/10 11:13:05;;;;;;;2.55;0.80;;;;;;;27.95;32.86;98327.03;4998780;28;20688;-61
2022/07/10 11:15:34;;;;;;;3.10;1.20;;;;;;;28.31;30.58;98329.69;5012477;28;20149;-61
2022/07/10 11:18:07;;;;;;;3.08;1.00;;;;;;;28.28;36.25;98312.34;4999216;28;20022;-61
2022/07/10 11:20:45;;;;;;;2.67;0.95;;;;;;;28.13;32.99;98310.47;4994326;28;20026;-60
2022/07/10 11:23:30;;;;;;;3.80;1.20;;;;;;;28.29;31.38;98307.78;4997197;28;20405;-60
2022/07/10 11:26:23;;;;;;;2.75;0.90;;;;;;;28.47;31.52;98309.91;4997773;28;20033;-61
2022/07/10 11:28:54;;;;;;;2.35;0.80;;;;;;;28.51;31.19;98311.00;4992775;28;20759;-61
2022/07/10 11:31:20;;;;;;;2.75;0.93;;;;;;;28.42;31.79;98293.06;4999652;28;20029;-60
2022/07/10 11:33:48;;;;;;;2.85;0.82;;;;;;;28.50;30.37;98298.69;4999546;28;20029;-61
2022/07/10 11:36:21;;;;;;;3.05;1.00;;;;;;;28.30;29.76;98269.31;5000156;28;20029;-60
2022/07/10 11:38:47;;;;;;;3.13;0.88;;;;;;;28.37;31.50;98278.66;5014364;28;20029;-60
2022/07/10 11:41:21;;;;;;;2.42;0.80;;;;;;;28.36;32.21;98302.97;4999561;28;20030;-60
2022/07/10 11:43:53;;;;;;;2.72;0.85;;;;;;;28.21;30.22;98294.97;4999752;28;20022;-61
2022/07/10 11:46:24;;;;;;;2.63;0.80;;;;;;;28.26;28.56;98294.97;4999116;28;20037;-60
2022/07/10 11:48:52;;;;;;;2.22;0.80;;;;;;;28.18;30.31;98291.78;4983441;28;20698;-59